Federal Oshima — VRVY8 — position and weather

sailwx.info

Track history (hours):
 
Tides and Currents Weather Stations Pressure Air Temp Water Temp Dewpoint Dewpoint Depression Visibility Wind Speed Wind Dir Waves Ship Positions

Federal Oshima

Last reported at 2015-Jul-27 01:25 UTC. Time now 2015-Jul-28 13:19 UTC.
Position N 42°23' W 079°58'.

Length 200 m; draft 6.6 m.

Type: Cargo ship. MMSI: 477675000.

Date/timePositionNaut miles runAvg speedWind from/ knotsBaromVisibWave heightAir tempDewpointWater temp
2015-Jul-27 01:25N 42°23' W 079°58'1112.5
2015-Jul-27 00:32N 42°29' W 079°46'1212.6
2015-Jul-26 23:33N 42°38' W 079°34'17 1.0
2015-Jul-26 07:23N 42°48' W 079°15'0 0.0
2015-Jul-25 10:24N 42°48' W 079°15'1 0.8
2015-Jul-25 09:33N 42°48' W 079°16'6 5.6
2015-Jul-25 08:33N 42°54' W 079°15'2 2.2
2015-Jul-25 07:33N 42°56' W 079°14'8 7.9
2015-Jul-25 06:33N 43°04' W 079°13'4 3.8
2015-Jul-25 05:34N 43°07' W 079°12'1 0.6
2015-Jul-25 04:34N 43°08' W 079°12'0 0.2
2015-Jul-25 03:34N 43°08' W 079°12'1 1.1
2015-Jul-25 02:33N 43°09' W 079°12'2 2.3
2015-Jul-25 01:34N 43°12' W 079°12'1 1.1
2015-Jul-25 00:34N 43°13' W 079°13'0 0.4
2015-Jul-24 23:34N 43°13' W 079°13'3 3.1
2015-Jul-24 22:33N 43°16' W 079°14'1312.9
2015-Jul-24 21:33N 43°17' W 079°31'  
2015-Jul-21 09:26N 43°19' W 079°46'910.4
2015-Jul-21 08:33N 43°21' W 079°34'1212.3
2015-Jul-21 07:33N 43°23' W 079°17'1212.0
2015-Jul-21 06:33N 43°25' W 079°00'1211.9
2015-Jul-21 05:33N 43°28' W 078°45'11013.4
2015-Jul-20 21:21N 44°07' W 076°22'0 0.1
2015-Jul-20 20:34N 44°07' W 076°23'10 9.1
2015-Jul-20 19:26N 44°13' W 076°11'110 7.8
2015-Jul-20 05:20N 45°13' W 074°02'7 8.4
2015-Jul-20 04:33N 45°18' W 073°56'1 0.9
2015-Jul-20 03:33N 45°19' W 073°55'5 5.0
2015-Jul-20 02:33N 45°22' W 073°50'8 8.1
2015-Jul-20 01:33N 45°24' W 073°38'3 3.3
2015-Jul-20 00:33N 45°24' W 073°34'44 7.1
2015-Jul-19 18:21N 46°04' W 073°04'810.2
2015-Jul-19 17:32N 46°10' W 072°56'1111.7
2015-Jul-19 16:33N 46°16' W 072°42'9 8.8
2015-Jul-19 15:33N 46°21' W 072°31'1110.7
2015-Jul-19 14:33N 46°26' W 072°18'1010.5
2015-Jul-19 13:33N 46°34' W 072°07'1110.5
2015-Jul-19 12:29N 46°40' W 071°54'  
Track history (hours):
 
Tides and Currents Weather Stations Pressure Air Temp Water Temp Dewpoint Dewpoint Depression Visibility Wind Speed Wind Dir Waves Ship Positions

Federal Oshima

Last reported at 2015-Jul-27 01:25 UTC. Time now 2015-Jul-28 13:19 UTC.
Position N 42°23' W 079°58'.

Length 200 m; draft 6.6 m.

Type: Cargo ship. MMSI: 477675000.

Date/timePositionNaut miles runAvg speedWind from/ knotsBaromVisibWave heightAir tempDewpointWater temp
2015-Jul-27 01:25N 42°23' W 079°58'1112.5
2015-Jul-27 00:32N 42°29' W 079°46'1212.6
2015-Jul-26 23:33N 42°38' W 079°34'17 1.0
2015-Jul-26 07:23N 42°48' W 079°15'0 0.0
2015-Jul-25 10:24N 42°48' W 079°15'1 0.8
2015-Jul-25 09:33N 42°48' W 079°16'6 5.6
2015-Jul-25 08:33N 42°54' W 079°15'2 2.2
2015-Jul-25 07:33N 42°56' W 079°14'8 7.9
2015-Jul-25 06:33N 43°04' W 079°13'4 3.8
2015-Jul-25 05:34N 43°07' W 079°12'1 0.6
2015-Jul-25 04:34N 43°08' W 079°12'0 0.2
2015-Jul-25 03:34N 43°08' W 079°12'1 1.1
2015-Jul-25 02:33N 43°09' W 079°12'2 2.3
2015-Jul-25 01:34N 43°12' W 079°12'1 1.1
2015-Jul-25 00:34N 43°13' W 079°13'0 0.4
2015-Jul-24 23:34N 43°13' W 079°13'3 3.1
2015-Jul-24 22:33N 43°16' W 079°14'1312.9
2015-Jul-24 21:33N 43°17' W 079°31'  
2015-Jul-21 09:26N 43°19' W 079°46'910.4
2015-Jul-21 08:33N 43°21' W 079°34'1212.3
2015-Jul-21 07:33N 43°23' W 079°17'1212.0
2015-Jul-21 06:33N 43°25' W 079°00'1211.9
2015-Jul-21 05:33N 43°28' W 078°45'11013.4
2015-Jul-20 21:21N 44°07' W 076°22'0 0.1
2015-Jul-20 20:34N 44°07' W 076°23'10 9.1
2015-Jul-20 19:26N 44°13' W 076°11'110 7.8
2015-Jul-20 05:20N 45°13' W 074°02'7 8.4
2015-Jul-20 04:33N 45°18' W 073°56'1 0.9
2015-Jul-20 03:33N 45°19' W 073°55'5 5.0
2015-Jul-20 02:33N 45°22' W 073°50'8 8.1
2015-Jul-20 01:33N 45°24' W 073°38'3 3.3
2015-Jul-20 00:33N 45°24' W 073°34'44 7.1
2015-Jul-19 18:21N 46°04' W 073°04'810.2
2015-Jul-19 17:32N 46°10' W 072°56'1111.7
2015-Jul-19 16:33N 46°16' W 072°42'9 8.8
2015-Jul-19 15:33N 46°21' W 072°31'1110.7
2015-Jul-19 14:33N 46°26' W 072°18'1010.5
2015-Jul-19 13:33N 46°34' W 072°07'1110.5
2015-Jul-19 12:29N 46°40' W 071°54'  

Dump ship's entire track history